createdAt,value
2022-12-28T00:01:13.062Z,77.85
2022-12-28T00:03:41.936Z,77.57
2022-12-28T00:06:09.884Z,77.85
2022-12-28T00:08:37.035Z,77.95
2022-12-28T00:11:09.046Z,78.35
2022-12-28T00:13:38.299Z,77.05
2022-12-28T00:16:09.860Z,77.85
2022-12-28T00:18:37.587Z,77.47
2022-12-28T00:21:06.167Z,77.60
2022-12-28T00:23:33.121Z,77.68
2022-12-28T00:26:06.443Z,77.28
2022-12-28T00:28:33.722Z,77.30
2022-12-28T00:31:00.649Z,78.10
2022-12-28T00:33:27.520Z,76.93
2022-12-28T00:35:54.879Z,77.68
2022-12-28T00:38:23.412Z,79.05
2022-12-28T00:40:50.416Z,77.15
2022-12-28T00:43:17.380Z,77.43
2022-12-28T00:45:44.874Z,78.15
2022-12-28T00:48:12.053Z,77.40
2022-12-28T00:50:38.993Z,77.45
2022-12-28T00:53:06.684Z,77.10
2022-12-28T00:55:35.539Z,77.40
2022-12-28T00:58:02.806Z,77.30
2022-12-28T01:00:30.263Z,77.13
2022-12-28T01:02:57.872Z,78.13
2022-12-28T01:05:24.850Z,77.30
2022-12-28T01:07:51.825Z,77.68
2022-12-28T01:10:19.063Z,77.82
2022-12-28T01:12:47.470Z,77.50
2022-12-28T01:15:14.502Z,77.50
2022-12-28T01:17:41.527Z,77.35
2022-12-28T01:20:09.242Z,77.18
2022-12-28T01:22:36.172Z,77.20
2022-12-28T01:25:03.627Z,77.55
2022-12-28T01:27:30.510Z,77.30
2022-12-28T01:29:58.849Z,77.55
2022-12-28T01:32:26.108Z,77.10
2022-12-28T01:34:52.960Z,77.32
2022-12-28T01:37:19.850Z,77.50
2022-12-28T01:39:46.699Z,77.28
2022-12-28T01:42:16.538Z,77.38
2022-12-28T01:44:45.990Z,76.85
2022-12-28T01:47:21.373Z,77.40
2022-12-28T01:49:58.914Z,77.28
2022-12-28T01:52:31.108Z,77.45
2022-12-28T01:55:06.960Z,77.32
2022-12-28T01:57:39.656Z,77.20
2022-12-28T02:00:09.680Z,77.32
2022-12-28T02:02:45.270Z,76.78
2022-12-28T02:05:14.031Z,77.18
2022-12-28T02:07:47.427Z,77.30
2022-12-28T02:10:43.777Z,77.75
2022-12-28T02:13:04.558Z,77.20
2022-12-28T02:15:31.501Z,77.05
2022-12-28T02:18:00.148Z,76.95
2022-12-28T02:20:36.977Z,77.28
2022-12-28T02:23:36.149Z,77.43
2022-12-28T02:26:35.932Z,77.85
2022-12-28T02:29:42.756Z,77.53
2022-12-28T02:32:35.090Z,76.82
2022-12-28T02:35:08.475Z,77.63
2022-12-28T02:37:40.546Z,76.90
2022-12-28T02:40:13.829Z,77.15
2022-12-28T02:42:41.737Z,77.55
2022-12-28T02:45:46.667Z,77.10
2022-12-28T02:48:35.538Z,77.07
2022-12-28T02:51:15.142Z,77.60
2022-12-28T02:54:07.331Z,77.07
2022-12-28T02:56:44.686Z,77.13
2022-12-28T02:59:37.686Z,77.13
2022-12-28T03:02:39.645Z,77.40
2022-12-28T03:05:13.928Z,77.00
2022-12-28T03:08:09.433Z,76.82
2022-12-28T03:10:45.640Z,76.97
2022-12-28T03:13:36.672Z,76.93
2022-12-28T03:16:08.272Z,76.97
2022-12-28T03:18:56.232Z,76.90
2022-12-28T03:21:47.631Z,77.15
2022-12-28T03:24:35.166Z,79.05
2022-12-28T03:27:24.738Z,77.07
2022-12-28T03:32:42.678Z,77.68
2022-12-28T03:35:10.296Z,76.70
2022-12-28T03:37:47.218Z,77.50
2022-12-28T03:40:26.588Z,77.05
2022-12-28T03:43:18.345Z,77.63
2022-12-28T03:45:53.098Z,77.85
2022-12-28T03:48:22.030Z,77.07
2022-12-28T03:50:53.786Z,76.93
2022-12-28T03:53:27.003Z,77.23
2022-12-28T03:56:07.046Z,77.70
2022-12-28T03:58:34.792Z,77.13
2022-12-28T04:01:03.501Z,76.85
2022-12-28T04:03:31.276Z,77.43
2022-12-28T04:05:58.521Z,77.20
2022-12-28T04:08:27.326Z,77.63
2022-12-28T04:10:55.210Z,77.35
2022-12-28T04:13:22.480Z,77.03
2022-12-28T04:15:59.439Z,77.22
2022-12-28T04:18:27.814Z,76.72
2022-12-28T04:20:54.858Z,76.95
2022-12-28T04:23:21.859Z,77.18
2022-12-28T04:26:03.775Z,77.28
2022-12-28T04:28:32.053Z,77.03
2022-12-28T04:31:17.718Z,77.22
2022-12-28T04:33:51.437Z,77.30
2022-12-28T04:36:18.494Z,77.68
2022-12-28T04:38:49.041Z,77.03
2022-12-28T04:41:17.315Z,77.32
2022-12-28T04:43:44.229Z,76.80
2022-12-28T04:46:13.347Z,78.55
2022-12-28T04:48:40.562Z,77.25
2022-12-28T04:51:08.855Z,77.05
2022-12-28T04:53:38.744Z,77.18
2022-12-28T04:56:06.635Z,77.32
2022-12-28T04:58:35.424Z,76.85
2022-12-28T05:01:04.079Z,76.97
2022-12-28T05:03:31.264Z,77.25
2022-12-28T05:06:00.778Z,77.85
2022-12-28T05:08:27.793Z,76.72
2022-12-28T05:10:54.772Z,77.32
2022-12-28T05:13:21.819Z,77.32
2022-12-28T05:15:50.134Z,77.53
2022-12-28T05:18:17.053Z,78.05
2022-12-28T05:20:43.935Z,76.90
2022-12-28T05:23:11.029Z,76.75
2022-12-28T05:25:37.947Z,79.35
2022-12-28T05:28:05.099Z,77.00
2022-12-28T05:30:31.942Z,76.68
2022-12-28T05:33:00.309Z,77.43
2022-12-28T05:35:27.167Z,77.00
2022-12-28T05:37:54.043Z,78.20
2022-12-28T05:40:20.927Z,77.38
2022-12-28T05:42:51.484Z,76.90
2022-12-28T05:45:18.767Z,77.47
2022-12-28T05:47:45.669Z,77.95
2022-12-28T05:50:14.009Z,77.28
2022-12-28T05:52:41.243Z,77.55
2022-12-28T05:55:08.924Z,76.95
2022-12-28T05:57:35.816Z,76.80
2022-12-28T06:00:03.339Z,77.28
2022-12-28T06:02:38.585Z,77.13
2022-12-28T06:05:06.736Z,77.47
2022-12-28T06:07:34.976Z,77.28
2022-12-28T06:10:01.941Z,76.93
2022-12-28T06:12:28.784Z,77.47
2022-12-28T06:14:55.835Z,77.00
2022-12-28T06:17:22.748Z,77.72
2022-12-28T06:19:49.729Z,77.72
2022-12-28T06:22:16.578Z,77.65
2022-12-28T06:24:44.810Z,78.93
2022-12-28T06:27:11.671Z,78.53
2022-12-28T06:29:38.593Z,77.45
2022-12-28T06:32:05.622Z,77.75
2022-12-28T06:34:32.595Z,78.53
2022-12-28T06:37:00.216Z,77.82
2022-12-28T06:39:27.272Z,77.72
2022-12-28T06:41:55.467Z,78.43
2022-12-28T06:44:22.363Z,78.18
2022-12-28T06:46:49.332Z,78.05
2022-12-28T06:49:16.165Z,78.05
2022-12-28T06:51:43.103Z,77.72
2022-12-28T06:54:10.632Z,77.93
2022-12-28T06:56:38.586Z,78.15
2022-12-28T06:59:07.510Z,78.93
2022-12-28T07:01:36.251Z,78.28
2022-12-28T07:04:06.313Z,78.20
2022-12-28T07:06:36.599Z,78.35
2022-12-28T07:09:07.103Z,78.05
2022-12-28T07:11:34.708Z,77.68
2022-12-28T07:14:01.690Z,78.50
2022-12-28T07:19:00.171Z,77.57
2022-12-28T07:21:30.517Z,77.90
2022-12-28T07:23:58.096Z,77.70
2022-12-28T07:26:26.911Z,78.05
2022-12-28T07:28:55.679Z,77.65
2022-12-28T07:31:24.572Z,77.65
2022-12-28T07:33:55.682Z,77.65
2022-12-28T07:36:23.801Z,78.55
2022-12-28T07:38:50.953Z,78.30
2022-12-28T07:41:20.764Z,77.65
2022-12-28T07:43:48.144Z,77.97
2022-12-28T07:46:17.308Z,78.22
2022-12-28T07:48:45.200Z,77.95
2022-12-28T07:51:15.992Z,78.35
2022-12-28T07:53:44.322Z,78.05
2022-12-28T07:56:11.920Z,77.80
2022-12-28T08:01:08.538Z,78.53
2022-12-28T08:03:35.861Z,78.20
2022-12-28T08:06:04.885Z,78.85
2022-12-28T08:08:34.939Z,78.00
2022-12-28T08:11:04.180Z,78.50
2022-12-28T08:13:32.714Z,77.75
2022-12-28T08:15:59.921Z,78.22
2022-12-28T08:18:27.131Z,78.55
2022-12-28T08:20:54.643Z,78.30
2022-12-28T08:23:21.985Z,78.88
2022-12-28T08:25:50.239Z,78.32
2022-12-28T08:28:17.193Z,78.72
2022-12-28T08:30:44.284Z,78.30
2022-12-28T08:33:11.197Z,78.43
2022-12-28T08:35:38.239Z,79.53
2022-12-28T08:38:05.191Z,79.40
2022-12-28T08:40:32.432Z,79.43
2022-12-28T08:43:00.734Z,78.25
2022-12-28T08:45:27.910Z,79.63
2022-12-28T08:47:54.831Z,78.20
2022-12-28T08:50:25.057Z,78.95
2022-12-28T08:52:56.511Z,78.82
2022-12-28T08:55:23.374Z,78.55
2022-12-28T08:57:50.253Z,79.25
2022-12-28T09:00:19.099Z,78.22
2022-12-28T09:02:46.001Z,78.65
2022-12-28T09:05:12.917Z,78.63
2022-12-28T09:07:39.799Z,79.35
2022-12-28T09:10:08.013Z,78.55
2022-12-28T09:12:35.018Z,78.63
2022-12-28T09:15:01.935Z,79.18
2022-12-28T09:17:30.158Z,78.82
2022-12-28T09:19:57.073Z,79.00
2022-12-28T09:22:23.981Z,78.43
2022-12-28T09:24:50.863Z,79.25
2022-12-28T09:27:17.735Z,78.28
2022-12-28T09:29:45.255Z,78.25
2022-12-28T09:32:12.096Z,80.53
2022-12-28T09:34:40.343Z,78.30
2022-12-28T09:37:07.626Z,78.45
2022-12-28T09:39:34.615Z,78.63
2022-12-28T09:42:04.471Z,79.13
2022-12-28T09:44:40.131Z,78.68
2022-12-28T09:47:17.384Z,78.80
2022-12-28T09:50:00.158Z,78.75
2022-12-28T09:52:30.493Z,79.68
2022-12-28T09:55:04.219Z,78.88
2022-12-28T09:57:37.721Z,79.50
2022-12-28T10:00:07.675Z,78.28
2022-12-28T10:02:38.287Z,78.97
2022-12-28T10:05:07.704Z,78.88
2022-12-28T10:07:37.273Z,78.70
2022-12-28T10:10:05.070Z,80.75
2022-12-28T10:12:31.978Z,78.70
2022-12-28T10:14:59.919Z,78.43
2022-12-28T10:17:30.456Z,78.30
2022-12-28T10:19:59.179Z,78.47
2022-12-28T10:22:37.192Z,78.38
2022-12-28T10:25:16.934Z,78.70
2022-12-28T10:27:44.357Z,78.60
2022-12-28T10:30:17.125Z,79.35
2022-12-28T10:32:56.685Z,78.28
2022-12-28T10:35:30.139Z,78.75
2022-12-28T10:38:04.219Z,78.40
2022-12-28T10:40:33.904Z,78.55
2022-12-28T10:43:04.162Z,79.05
2022-12-28T10:45:38.176Z,78.07
2022-12-28T10:48:14.112Z,78.78
2022-12-28T10:50:45.999Z,78.88
2022-12-28T10:53:20.628Z,79.10
2022-12-28T10:55:47.677Z,78.75
2022-12-28T10:58:28.966Z,78.38
2022-12-28T11:00:59.374Z,78.13
2022-12-28T11:03:28.616Z,78.15
2022-12-28T11:06:14.085Z,78.82
2022-12-28T11:08:44.214Z,78.28
2022-12-28T11:11:20.087Z,78.97
2022-12-28T11:13:51.530Z,78.72
2022-12-28T11:16:18.511Z,78.22
2022-12-28T11:18:45.599Z,78.75
2022-12-28T11:21:19.111Z,78.70
2022-12-28T11:23:49.467Z,78.60
2022-12-28T11:26:18.106Z,77.87
2022-12-28T11:28:48.384Z,78.45
2022-12-28T11:31:23.987Z,80.13
2022-12-28T11:33:54.894Z,78.20
2022-12-28T11:36:25.595Z,78.78
2022-12-28T11:38:56.362Z,78.30
2022-12-28T11:42:10.553Z,77.93
2022-12-28T11:44:52.114Z,79.85
2022-12-28T11:47:33.163Z,78.43
2022-12-28T11:50:42.139Z,78.63
2022-12-28T11:53:43.067Z,77.90
2022-12-28T11:56:13.336Z,78.40
2022-12-28T11:58:46.570Z,78.20
2022-12-28T12:01:44.241Z,78.43
2022-12-28T12:04:40.124Z,78.03
2022-12-28T12:07:31.197Z,78.03
2022-12-28T12:10:28.696Z,78.20
2022-12-28T12:12:57.727Z,78.15
2022-12-28T12:15:32.587Z,77.80
2022-12-28T12:18:03.379Z,78.25
2022-12-28T12:20:47.336Z,78.75
2022-12-28T12:23:24.766Z,78.07
2022-12-28T12:25:56.257Z,77.80
2022-12-28T12:31:13.510Z,77.75
2022-12-28T12:33:43.828Z,77.78
2022-12-28T12:36:29.713Z,77.60
2022-12-28T12:39:17.914Z,78.60
2022-12-28T12:41:58.094Z,77.80
2022-12-28T12:44:34.499Z,78.57
2022-12-28T12:47:20.601Z,78.18
2022-12-28T12:49:59.861Z,78.35
2022-12-28T12:52:42.475Z,78.30
2022-12-28T12:55:22.072Z,77.88
2022-12-28T12:57:58.646Z,77.70
2022-12-28T13:00:32.708Z,77.65
2022-12-28T13:03:24.302Z,77.78
2022-12-28T13:08:24.098Z,77.63
2022-12-28T13:10:52.051Z,77.95
2022-12-28T13:13:27.279Z,78.05
2022-12-28T13:15:58.996Z,77.78
2022-12-28T13:18:44.576Z,77.95
2022-12-28T13:21:20.388Z,77.85
2022-12-28T13:23:48.081Z,78.00
2022-12-28T13:26:16.084Z,77.60
2022-12-28T13:28:50.511Z,78.75
2022-12-28T13:31:19.398Z,77.85
2022-12-28T13:33:59.080Z,77.90
2022-12-28T13:36:26.465Z,80.28
2022-12-28T13:39:05.177Z,78.30
2022-12-28T13:41:34.940Z,77.95
2022-12-28T13:44:27.628Z,78.78
2022-12-28T13:47:01.234Z,80.70
2022-12-28T13:49:34.366Z,80.53
2022-12-28T13:52:01.788Z,79.70
2022-12-28T13:54:56.818Z,79.18
2022-12-28T14:00:16.999Z,84.20
2022-12-28T14:02:44.011Z,83.70
2022-12-28T14:05:18.711Z,89.20
2022-12-28T14:07:47.071Z,81.18
2022-12-28T14:10:14.167Z,82.18
2022-12-28T14:12:41.703Z,80.00
2022-12-28T14:15:11.266Z,79.15
2022-12-28T14:17:39.121Z,82.45
2022-12-28T14:20:07.492Z,78.72
2022-12-28T14:22:37.543Z,81.57
2022-12-28T14:25:07.940Z,79.25
2022-12-28T14:27:38.389Z,79.23
2022-12-28T14:30:08.445Z,78.47
2022-12-28T14:32:42.399Z,81.63
2022-12-28T14:35:17.826Z,81.10
2022-12-28T14:37:51.051Z,80.15
2022-12-28T14:40:25.746Z,81.10
2022-12-28T14:42:54.516Z,84.20
2022-12-28T14:45:25.310Z,80.95
2022-12-28T14:47:56.518Z,80.40
2022-12-28T14:50:25.845Z,80.90
2022-12-28T14:53:07.423Z,80.43
2022-12-28T14:55:41.207Z,81.72
2022-12-28T14:58:16.518Z,82.00
2022-12-28T15:00:56.549Z,82.32
2022-12-28T15:03:24.056Z,79.85
2022-12-28T15:05:52.283Z,80.95
2022-12-28T15:08:22.979Z,80.72
2022-12-28T15:10:52.004Z,82.95
2022-12-28T15:13:19.860Z,81.03
2022-12-28T15:15:53.744Z,80.65
2022-12-28T15:18:20.978Z,80.47
2022-12-28T15:20:47.872Z,80.57
2022-12-28T15:23:15.750Z,81.00
2022-12-28T15:25:49.801Z,80.90
2022-12-28T15:28:18.223Z,81.28
2022-12-28T15:30:45.302Z,80.82
2022-12-28T15:33:12.582Z,81.13
2022-12-28T15:35:39.589Z,80.70
2022-12-28T15:38:06.429Z,80.35
2022-12-28T15:40:33.431Z,79.88
2022-12-28T15:43:01.723Z,79.90
2022-12-28T15:45:28.581Z,78.63
2022-12-28T15:47:55.516Z,78.68
2022-12-28T15:50:22.466Z,78.68
2022-12-28T15:52:49.639Z,80.60
2022-12-28T15:55:17.651Z,79.10
2022-12-28T15:57:44.754Z,78.78
2022-12-28T16:00:18.918Z,79.05
2022-12-28T16:02:46.617Z,78.53
2022-12-28T16:05:13.896Z,79.70
2022-12-28T16:07:40.785Z,78.72
2022-12-28T16:10:08.308Z,83.13
2022-12-28T16:12:35.242Z,78.07
2022-12-28T16:15:02.443Z,78.70
2022-12-28T16:17:30.723Z,78.88
2022-12-28T16:19:57.718Z,77.68
2022-12-28T16:22:24.582Z,78.43
2022-12-28T16:24:51.619Z,79.53
2022-12-28T16:27:18.654Z,77.78
2022-12-28T16:29:46.375Z,78.35
2022-12-28T16:32:13.238Z,77.90
2022-12-28T16:34:41.524Z,79.25
2022-12-28T16:37:10.136Z,77.88
2022-12-28T16:39:38.000Z,78.15
2022-12-28T16:42:06.288Z,81.43
2022-12-28T16:44:34.119Z,80.18
2022-12-28T16:47:01.079Z,78.75
2022-12-28T16:49:28.313Z,78.25
2022-12-28T16:51:56.807Z,78.28
2022-12-28T16:54:25.234Z,78.10
2022-12-28T16:56:53.330Z,79.28
2022-12-28T16:59:24.509Z,79.25
2022-12-28T17:01:52.272Z,78.10
2022-12-28T17:04:20.028Z,78.25
2022-12-28T17:06:50.804Z,80.22
2022-12-28T17:09:20.181Z,79.28
2022-12-28T17:11:47.495Z,78.00
2022-12-28T17:14:17.475Z,77.70
2022-12-28T17:16:51.484Z,78.05
2022-12-28T17:19:18.329Z,78.10
2022-12-28T17:21:45.240Z,78.65
2022-12-28T17:24:12.181Z,78.13
2022-12-28T17:26:40.451Z,77.65
2022-12-28T17:29:07.289Z,78.65
2022-12-28T17:31:34.303Z,79.57
2022-12-28T17:34:02.908Z,77.75
2022-12-28T17:36:30.314Z,82.15
2022-12-28T17:38:58.552Z,79.50
2022-12-28T17:41:27.411Z,78.75
2022-12-28T17:43:58.128Z,78.82
2022-12-28T17:46:26.496Z,78.40
2022-12-28T17:48:54.182Z,79.07
2022-12-28T17:51:21.113Z,78.18
2022-12-28T17:53:49.310Z,80.30
2022-12-28T17:56:16.618Z,79.55
2022-12-28T17:58:44.845Z,78.32
2022-12-28T18:01:13.741Z,78.45
2022-12-28T18:03:40.923Z,78.03
2022-12-28T18:06:07.963Z,78.00
2022-12-28T18:08:35.058Z,81.72
2022-12-28T18:11:02.960Z,78.43
2022-12-28T18:13:30.152Z,81.18
2022-12-28T18:15:57.331Z,78.60
2022-12-28T18:18:25.567Z,79.10
2022-12-28T18:20:57.129Z,78.65
2022-12-28T18:23:24.069Z,78.43
2022-12-28T18:25:50.984Z,78.40
2022-12-28T18:28:17.942Z,78.13
2022-12-28T18:30:44.851Z,78.45
2022-12-28T18:33:11.872Z,78.38
2022-12-28T18:35:40.066Z,78.50
2022-12-28T18:38:07.463Z,78.32
2022-12-28T18:40:36.026Z,78.22
2022-12-28T18:43:02.867Z,78.57
2022-12-28T18:45:29.727Z,78.65
2022-12-28T18:47:56.680Z,78.95
2022-12-28T18:50:23.624Z,78.30
2022-12-28T18:52:51.903Z,78.32
2022-12-28T18:55:18.742Z,78.32
2022-12-28T18:57:45.668Z,78.45
2022-12-28T19:00:13.704Z,78.60
2022-12-28T19:02:40.691Z,78.25
2022-12-28T19:05:09.567Z,78.38
2022-12-28T19:07:36.450Z,78.50
2022-12-28T19:10:12.912Z,78.38
2022-12-28T19:12:41.551Z,78.93
2022-12-28T19:15:09.648Z,80.82
2022-12-28T19:17:36.827Z,78.50
2022-12-28T19:20:04.680Z,78.40
2022-12-28T19:22:31.747Z,78.32
2022-12-28T19:24:58.602Z,77.93
2022-12-28T19:27:26.901Z,79.25
2022-12-28T19:29:53.741Z,78.47
2022-12-28T19:32:20.605Z,80.10
2022-12-28T19:34:47.524Z,78.28
2022-12-28T19:37:14.404Z,78.55
2022-12-28T19:39:41.311Z,79.30
2022-12-28T19:42:08.147Z,78.32
2022-12-28T19:44:36.487Z,78.70
2022-12-28T19:47:03.434Z,78.22
2022-12-28T19:49:30.341Z,78.68
2022-12-28T19:51:57.310Z,78.40
2022-12-28T19:54:24.154Z,78.28
2022-12-28T19:56:51.016Z,79.88
2022-12-28T19:59:17.871Z,78.53
2022-12-28T20:01:46.171Z,79.65
2022-12-28T20:04:14.406Z,78.50
2022-12-28T20:06:42.888Z,78.72
2022-12-28T20:09:10.777Z,78.55
2022-12-28T20:11:38.410Z,78.80
2022-12-28T20:14:05.709Z,78.20
2022-12-28T20:16:35.146Z,79.75
2022-12-28T20:19:07.056Z,80.38
2022-12-28T20:21:34.959Z,78.18
2022-12-28T20:24:02.926Z,78.63
2022-12-28T20:26:30.362Z,79.47
2022-12-28T20:28:58.735Z,79.18
2022-12-28T20:31:27.071Z,78.43
2022-12-28T20:33:54.062Z,80.70
2022-12-28T20:36:23.924Z,78.53
2022-12-28T20:38:51.323Z,78.35
2022-12-28T20:41:38.916Z,78.82
2022-12-28T20:44:08.230Z,79.22
2022-12-28T20:46:35.581Z,78.75
2022-12-28T20:49:02.763Z,78.55
2022-12-28T20:51:30.998Z,79.35
2022-12-28T20:53:57.884Z,78.88
2022-12-28T20:56:24.760Z,78.20
2022-12-28T20:58:51.815Z,78.15
2022-12-28T21:01:18.805Z,77.85
2022-12-28T21:03:46.140Z,78.28
2022-12-28T21:06:13.495Z,78.35
2022-12-28T21:08:41.711Z,78.97
2022-12-28T21:11:08.640Z,78.30
2022-12-28T21:13:39.403Z,78.57
2022-12-28T21:16:11.685Z,78.45
2022-12-28T21:18:38.643Z,78.57
2022-12-28T21:21:06.141Z,79.10
2022-12-28T21:23:33.399Z,78.38
2022-12-28T21:26:02.859Z,78.55
2022-12-28T21:28:30.068Z,78.78
2022-12-28T21:30:57.969Z,78.05
2022-12-28T21:33:24.813Z,78.55
2022-12-28T21:35:59.390Z,78.18
2022-12-28T21:38:26.999Z,78.38
2022-12-28T21:40:58.472Z,78.07
2022-12-28T21:43:26.834Z,77.90
2022-12-28T21:46:01.960Z,78.32
2022-12-28T21:48:31.276Z,78.80
2022-12-28T21:51:03.624Z,78.85
2022-12-28T21:53:30.498Z,77.97
2022-12-28T21:55:57.324Z,77.85
2022-12-28T21:58:24.317Z,77.88
2022-12-28T22:01:16.033Z,77.70
2022-12-28T22:04:01.571Z,78.15
2022-12-28T22:06:28.449Z,77.63
2022-12-28T22:09:13.884Z,78.32
2022-12-28T22:11:59.170Z,78.45
2022-12-28T22:14:26.071Z,78.68
2022-12-28T22:16:54.389Z,78.65
2022-12-28T22:19:21.293Z,78.25
2022-12-28T22:21:48.223Z,78.20
2022-12-28T22:24:15.154Z,77.65
2022-12-28T22:26:41.984Z,78.68
2022-12-28T22:29:09.097Z,78.38
2022-12-28T22:31:38.067Z,78.90
2022-12-28T22:34:07.638Z,77.85
2022-12-28T22:36:34.599Z,78.22
2022-12-28T22:39:01.481Z,78.75
2022-12-28T22:41:28.324Z,77.60
2022-12-28T22:43:55.207Z,78.30
2022-12-28T22:46:22.187Z,78.07
2022-12-28T22:48:49.474Z,78.30
2022-12-28T22:51:17.887Z,77.97
2022-12-28T22:53:44.861Z,77.78
2022-12-28T22:56:19.560Z,77.88
2022-12-28T22:58:46.474Z,78.38
2022-12-28T23:01:15.615Z,77.47
2022-12-28T23:03:44.494Z,77.68
2022-12-28T23:06:13.267Z,77.40
2022-12-28T23:08:41.507Z,78.07
2022-12-28T23:11:30.695Z,77.85
2022-12-28T23:14:18.252Z,78.15
2022-12-28T23:16:45.281Z,79.82
2022-12-28T23:19:30.795Z,79.18
2022-12-28T23:22:16.718Z,78.68
2022-12-28T23:25:03.601Z,78.00
2022-12-28T23:27:34.297Z,78.32
2022-12-28T23:30:01.171Z,77.70
2022-12-28T23:32:28.157Z,77.80
2022-12-28T23:34:54.992Z,77.70
2022-12-28T23:37:21.834Z,77.38
2022-12-28T23:39:50.060Z,77.82
2022-12-28T23:42:16.905Z,77.90
2022-12-28T23:44:46.188Z,77.88
2022-12-28T23:47:13.096Z,77.28
2022-12-28T23:49:39.957Z,77.45
2022-12-28T23:52:06.837Z,77.43
2022-12-28T23:54:33.705Z,77.43
2022-12-28T23:57:01.975Z,77.72
2022-12-28T23:59:28.891Z,77.85
